Time;durP1;ratioP1;P1;durP2;ratioP2;P2;SDS_P1;SDS_P2;PMS_P1;PMS_P2;Temp;Humidity;BMP_temperature;BMP_pressure;BME280_temperature;BME280_humidity;BME280_pressure;Samples;Min_cycle;Max_cycle;Signal;HPM_P1;HPM_P2
2021/04/30 00:00:53;;;;;;;13.43;5.63;;;;;;;6.32;76.87;101214.94;5133996;28;20054;-39
2021/04/30 00:03:19;;;;;;;12.03;5.40;;;;;;;6.30;76.71;101215.13;5133725;28;20401;-39
2021/04/30 00:05:45;;;;;;;8.35;5.25;;;;;;;6.29;76.58;101215.31;5133978;28;20030;-39
2021/04/30 00:08:12;;;;;;;13.80;5.30;;;;;;;6.27;76.49;101223.56;5134545;28;20051;-39
2021/04/30 00:10:38;;;;;;;10.60;6.05;;;;;;;6.22;76.67;101217.94;5133859;28;20028;-39
2021/04/30 00:13:03;;;;;;;10.07;6.25;;;;;;;6.20;76.81;101217.31;5133540;28;20058;-39
2021/04/30 00:15:28;;;;;;;9.30;5.77;;;;;;;6.21;76.77;101213.59;5134087;28;20388;-39
2021/04/30 00:17:54;;;;;;;13.00;6.20;;;;;;;6.19;76.96;101207.59;5133680;28;20031;-39
2021/04/30 00:20:19;;;;;;;15.90;6.73;;;;;;;6.18;76.28;101211.28;5134083;28;20059;-39
2021/04/30 00:22:44;;;;;;;10.40;5.80;;;;;;;6.15;77.03;101207.16;5133464;28;20455;-39
2021/04/30 00:25:11;;;;;;;11.17;6.07;;;;;;;6.15;76.51;101214.38;5134083;28;20062;-39
2021/04/30 00:27:37;;;;;;;12.02;6.18;;;;;;;6.04;77.27;101213.03;5133348;28;20034;-39
2021/04/30 00:30:05;;;;;;;12.02;6.40;;;;;;;6.10;77.05;101211.41;5133646;28;20023;-39
2021/04/30 00:32:31;;;;;;;11.85;6.68;;;;;;;6.08;77.04;101214.31;5133806;27;20027;-39
2021/04/30 00:34:56;;;;;;;8.38;6.00;;;;;;;6.09;76.80;101212.44;5138162;27;20027;-39
2021/04/30 00:37:21;;;;;;;9.97;6.20;;;;;;;6.09;77.02;101209.75;5137154;27;20488;-39
2021/04/30 00:39:47;;;;;;;11.60;6.80;;;;;;;6.09;76.89;101204.41;5137780;27;20027;-39
2021/04/30 00:42:15;;;;;;;10.57;6.83;;;;;;;6.10;76.83;101208.72;5137741;27;20027;-39
2021/04/30 00:44:44;;;;;;;13.13;7.40;;;;;;;6.08;77.01;101194.69;5137895;27;20030;-39
2021/04/30 00:47:24;;;;;;;9.85;6.28;;;;;;;6.04;77.05;101207.66;5137029;27;20031;-39
2021/04/30 00:49:50;;;;;;;11.23;7.07;;;;;;;6.06;77.18;101202.13;5135791;27;20027;-39
2021/04/30 00:52:15;;;;;;;15.13;7.60;;;;;;;6.08;77.10;101208.09;5135623;27;20038;-39
2021/04/30 00:54:40;;;;;;;9.90;6.90;;;;;;;6.06;76.97;101202.94;5136705;27;20031;-39
2021/04/30 00:57:06;;;;;;;10.17;7.33;;;;;;;6.08;77.11;101203.56;5137609;27;20031;-39
2021/04/30 00:59:31;;;;;;;10.73;7.10;;;;;;;6.10;77.27;101212.28;5137347;27;20038;-39
2021/04/30 01:01:57;;;;;;;11.13;7.05;;;;;;;6.09;77.11;101209.75;5137090;27;20032;-39
2021/04/30 01:04:22;;;;;;;16.73;7.80;;;;;;;6.10;77.31;101216.78;5137354;27;20035;-39
2021/04/30 01:06:47;;;;;;;13.73;7.83;;;;;;;6.09;77.33;101212.44;5136901;27;20062;-39
2021/04/30 01:09:13;;;;;;;14.37;8.00;;;;;;;6.09;77.05;101215.97;5136626;27;20379;-39
2021/04/30 01:11:38;;;;;;;9.53;7.73;;;;;;;6.08;77.60;101216.16;5136687;27;20050;-39
2021/04/30 01:14:03;;;;;;;12.77;8.10;;;;;;;6.10;77.99;101222.16;5136546;27;20066;-39
2021/04/30 01:16:29;;;;;;;12.07;7.87;;;;;;;6.07;77.35;101215.34;5136508;27;20397;-39
2021/04/30 01:18:54;;;;;;;11.67;7.60;;;;;;;6.08;77.62;101214.31;5136653;27;20027;-39
2021/04/30 01:21:23;;;;;;;13.00;7.73;;;;;;;6.06;77.81;101220.91;5136719;27;20030;-39
2021/04/30 01:23:51;;;;;;;12.75;7.68;;;;;;;6.05;77.82;101225.44;5136075;27;20048;-39
2021/04/30 01:26:17;;;;;;;14.57;8.02;;;;;;;6.06;78.01;101232.47;5136597;27;20110;-39
2021/04/30 01:28:43;;;;;;;12.27;7.63;;;;;;;6.06;77.73;101232.47;5135846;27;20031;-39
2021/04/30 01:31:09;;;;;;;14.32;7.53;;;;;;;6.08;77.87;101234.97;5136242;27;20486;-39
2021/04/30 01:33:34;;;;;;;14.05;7.78;;;;;;;6.02;77.76;101238.41;5136904;27;20055;-39
2021/04/30 01:36:00;;;;;;;12.18;7.25;;;;;;;6.03;78.02;101237.38;5135915;27;20042;-40
2021/04/30 01:38:26;;;;;;;15.93;8.55;;;;;;;6.01;77.82;101240.28;5136127;27;20031;-39
2021/04/30 01:40:52;;;;;;;12.50;8.02;;;;;;;6.00;77.94;101241.28;5136057;27;20050;-39
2021/04/30 01:43:20;;;;;;;17.93;8.60;;;;;;;5.98;77.78;101240.66;5134323;27;20062;-39
2021/04/30 01:45:52;;;;;;;13.48;8.10;;;;;;;5.99;77.78;101244.16;5136446;27;20375;-39
2021/04/30 01:48:23;;;;;;;15.65;8.10;;;;;;;5.98;78.18;101245.19;5135585;27;20471;-39
2021/04/30 01:50:49;;;;;;;12.55;8.43;;;;;;;5.98;78.39;101246.00;5136438;27;20031;-39
2021/04/30 01:53:36;;;;;;;12.88;7.97;;;;;;;6.00;78.50;101249.31;5136084;27;20027;-39
2021/04/30 01:56:03;;;;;;;;;;;;;;;6.08;77.08;101245.69;5135821;27;20054;-39
2021/04/30 01:58:28;;;;;;;13.98;8.35;;;;;;;6.00;78.63;101248.50;5135461;27;20374;-39
2021/04/30 02:00:55;;;;;;;14.83;8.67;;;;;;;6.01;78.39;101252.88;5135676;27;20023;-39
2021/04/30 02:03:21;;;;;;;14.18;8.98;;;;;;;6.02;78.47;101254.53;5135335;27;20467;-39
2021/04/30 02:05:46;;;;;;;15.10;9.23;;;;;;;5.99;78.79;101253.03;5135879;27;20073;-39
2021/04/30 02:08:15;;;;;;;14.67;9.13;;;;;;;5.96;79.12;101247.25;5136313;27;20047;-39
2021/04/30 02:10:43;;;;;;;14.35;8.80;;;;;;;5.98;78.95;101247.88;5135499;27;20031;-39
2021/04/30 02:13:09;;;;;;;15.32;9.50;;;;;;;6.00;79.08;101248.50;5136225;27;20051;-39
2021/04/30 02:15:38;;;;;;;13.80;9.40;;;;;;;6.03;78.97;101250.81;5135384;27;20062;-39
2021/04/30 02:18:04;;;;;;;14.52;9.10;;;;;;;6.02;78.94;101243.78;5135403;27;20023;-39
2021/04/30 02:20:29;;;;;;;17.00;9.45;;;;;;;6.03;78.87;101246.28;5135942;27;20076;-39
2021/04/30 02:22:55;;;;;;;15.45;9.07;;;;;;;6.05;78.62;101243.38;5135384;27;20438;-39
2021/04/30 02:25:22;;;;;;;16.38;9.07;;;;;;;6.06;78.94;101251.28;5135492;27;20103;-39
2021/04/30 02:27:49;;;;;;;13.50;8.80;;;;;;;6.06;79.08;101253.13;5134962;27;20031;-39
2021/04/30 02:30:17;;;;;;;12.45;9.43;;;;;;;6.05;78.93;101251.44;5135400;27;20113;-39
2021/04/30 02:32:43;;;;;;;16.15;9.23;;;;;;;6.05;78.75;101256.81;5134947;27;20028;-39
2021/04/30 02:35:14;;;;;;;;;;;;;;;6.14;77.92;101255.66;5135702;27;20027;-39
2021/04/30 02:37:40;;;;;;;16.42;9.35;;;;;;;6.10;78.78;101259.75;5135601;27;19912;-39
2021/04/30 02:40:07;;;;;;;13.30;9.18;;;;;;;6.09;78.93;101260.78;5135485;27;20031;-39
2021/04/30 02:42:32;;;;;;;13.32;8.73;;;;;;;6.10;78.39;101260.63;5135600;27;20027;-39
2021/04/30 02:45:01;;;;;;;15.33;10.10;;;;;;;6.09;78.81;101252.72;5135122;27;20068;-39
2021/04/30 02:47:30;;;;;;;13.05;9.43;;;;;;;6.09;79.31;101258.09;5135705;27;20023;-39
2021/04/30 02:49:56;;;;;;;17.48;9.32;;;;;;;6.08;79.10;101259.13;5135261;27;20340;-39
2021/04/30 02:52:22;;;;;;;14.40;9.35;;;;;;;6.11;78.90;101256.06;5134525;27;20023;-39
2021/04/30 02:54:47;;;;;;;15.47;9.53;;;;;;;6.12;78.97;101263.91;5135135;27;20073;-39
2021/04/30 02:57:13;;;;;;;13.90;9.73;;;;;;;6.10;78.85;101265.97;5134087;27;20459;-39
2021/04/30 02:59:39;;;;;;;17.65;10.18;;;;;;;6.11;78.92;101256.06;5134592;27;20076;-39
2021/04/30 03:02:05;;;;;;;17.38;10.05;;;;;;;6.07;79.00;101260.16;5135068;27;20019;-39
2021/04/30 03:04:30;;;;;;;19.20;10.30;;;;;;;6.07;78.78;101254.78;5134554;27;20628;-39
2021/04/30 03:06:55;;;;;;;14.00;9.63;;;;;;;6.09;79.01;101252.72;5134849;27;20059;-39
2021/04/30 03:09:21;;;;;;;15.67;9.73;;;;;;;6.11;78.34;101261.44;5134459;27;20113;-39
2021/04/30 03:11:46;;;;;;;15.50;10.10;;;;;;;6.11;79.19;101251.53;5134807;27;20455;-39
2021/04/30 03:14:12;;;;;;;16.10;10.23;;;;;;;6.08;79.38;101254.59;5134392;27;20109;-39
2021/04/30 03:16:37;;;;;;;14.83;9.63;;;;;;;6.10;79.25;101257.94;5134954;27;20023;-39
2021/04/30 03:19:03;;;;;;;13.03;9.97;;;;;;;6.13;79.24;101262.06;5134194;28;20436;-39
2021/04/30 03:21:28;;;;;;;16.88;10.13;;;;;;;6.10;80.20;101263.28;5134388;28;20048;-39
2021/04/30 03:23:54;;;;;;;15.83;10.00;;;;;;;6.10;79.72;101259.75;5133115;28;20031;-39
2021/04/30 03:26:20;;;;;;;14.00;9.83;;;;;;;6.11;79.91;101261.44;5134854;27;20019;-39
2021/04/30 03:28:45;;;;;;;17.37;10.13;;;;;;;6.07;80.12;101260.16;5134473;28;20489;-39
2021/04/30 03:31:11;;;;;;;12.97;10.73;;;;;;;6.06;80.16;101261.19;5134527;27;20620;-39
2021/04/30 03:33:37;;;;;;;15.88;10.52;;;;;;;6.03;80.04;101257.00;5133921;27;20391;-39
2021/04/30 03:36:03;;;;;;;18.55;10.27;;;;;;;6.04;80.74;101252.47;5134428;27;20088;-39
2021/04/30 03:38:29;;;;;;;14.32;10.07;;;;;;;6.04;80.64;101249.78;5134036;27;20517;-39
2021/04/30 03:40:54;;;;;;;13.65;10.15;;;;;;;6.04;80.79;101250.63;5134376;27;20050;-39
2021/04/30 03:43:19;;;;;;;17.77;10.57;;;;;;;6.03;80.39;101248.13;5134136;27;20030;-39
2021/04/30 03:45:45;;;;;;;14.50;10.87;;;;;;;6.03;80.69;101253.50;5134705;27;20300;-39
2021/04/30 03:48:10;;;;;;;14.40;11.03;;;;;;;6.02;80.40;101249.16;5134044;27;20470;-39
2021/04/30 03:50:35;;;;;;;15.93;9.87;;;;;;;6.04;80.31;101242.56;5134354;27;20019;-39
2021/04/30 03:53:01;;;;;;;12.50;9.50;;;;;;;6.06;80.27;101242.38;5134075;28;20031;-39
2021/04/30 03:55:26;;;;;;;15.90;9.93;;;;;;;6.06;80.75;101248.59;5134854;28;20061;-39
2021/04/30 03:57:52;;;;;;;17.10;10.53;;;;;;;6.08;80.46;101245.69;5134477;28;20059;-40
2021/04/30 04:00:18;;;;;;;12.33;10.07;;;;;;;6.11;80.75;101245.31;5134550;27;20019;-39
2021/04/30 04:02:44;;;;;;;16.42;10.73;;;;;;;6.09;80.77;101242.81;5134488;27;20051;-39
2021/04/30 04:05:10;;;;;;;14.10;9.65;;;;;;;6.14;80.63;101243.06;5134527;27;20034;-39
2021/04/30 04:07:35;;;;;;;16.30;10.50;;;;;;;6.14;80.52;101250.28;5136090;27;20432;-39
2021/04/30 04:10:00;;;;;;;15.00;10.33;;;;;;;6.17;80.44;101244.56;5138458;27;20027;-39
2021/04/30 04:12:26;;;;;;;16.13;10.70;;;;;;;6.19;80.38;101253.22;5137559;27;20027;-39
2021/04/30 04:14:51;;;;;;;12.00;10.17;;;;;;;6.17;81.08;101249.94;5137905;27;20481;-39
2021/04/30 04:17:17;;;;;;;13.23;10.37;;;;;;;6.16;80.39;101257.16;5137706;27;20394;-39
2021/04/30 04:19:49;;;;;;;21.33;11.63;;;;;;;6.17;81.05;101260.66;5138075;27;20027;-39
2021/04/30 04:22:18;;;;;;;16.45;11.95;;;;;;;6.14;81.61;101269.09;5137914;27;20104;-39
2021/04/30 04:24:44;;;;;;;16.30;11.77;;;;;;;6.09;82.09;101274.22;5138079;27;20439;-39
2021/04/30 04:27:10;;;;;;;21.58;12.63;;;;;;;6.04;82.01;101263.22;5137380;27;20110;-39
2021/04/30 04:29:36;;;;;;;16.90;11.93;;;;;;;5.97;82.91;101271.19;5137936;27;20113;-39
2021/04/30 04:32:03;;;;;;;17.67;11.57;;;;;;;5.99;82.64;101255.72;5137446;27;20124;-39
2021/04/30 04:34:28;;;;;;;16.00;10.43;;;;;;;5.99;83.11;101254.91;5137569;27;20050;-39
2021/04/30 04:36:54;;;;;;;16.17;11.57;;;;;;;6.00;83.04;101256.56;5137293;27;20074;-39
2021/04/30 04:39:19;;;;;;;15.33;11.03;;;;;;;5.99;83.33;101254.91;5137493;27;20412;-39
2021/04/30 04:41:45;;;;;;;18.37;10.97;;;;;;;5.94;83.01;101261.66;5136312;27;20490;-40
2021/04/30 04:44:10;;;;;;;15.93;11.48;;;;;;;5.94;83.23;101261.66;5137234;27;20303;-39
2021/04/30 04:46:36;;;;;;;12.90;11.37;;;;;;;5.90;83.76;101259.50;5137100;27;20457;-39
2021/04/30 04:49:01;;;;;;;18.63;11.57;;;;;;;5.92;83.17;101269.09;5137229;27;20108;-39
2021/04/30 04:51:26;;;;;;;20.70;11.90;;;;;;;5.88;83.47;101265.09;5137429;27;20507;-39
2021/04/30 04:53:52;;;;;;;17.47;12.67;;;;;;;5.90;83.49;101267.56;5136926;27;20024;-39
2021/04/30 04:56:17;;;;;;;15.80;12.10;;;;;;;5.89;83.40;101268.59;5136959;27;20114;-39
2021/04/30 04:58:42;;;;;;;13.97;10.57;;;;;;;5.89;83.39;101269.44;5136737;27;20020;-39
2021/04/30 05:01:08;;;;;;;15.60;11.60;;;;;;;5.93;83.32;101273.44;5137633;27;20328;-39
2021/04/30 05:03:34;;;;;;;18.40;12.17;;;;;;;5.93;83.93;101276.13;5136848;27;20498;-39
2021/04/30 05:05:59;;;;;;;16.92;11.95;;;;;;;5.93;83.97;101272.59;5137052;27;20432;-39
2021/04/30 05:08:24;;;;;;;17.53;12.00;;;;;;;5.95;84.43;101273.22;5137374;27;20055;-39
2021/04/30 05:10:50;;;;;;;15.90;12.77;;;;;;;5.97;84.38;101281.13;5136414;27;20464;-39
2021/04/30 05:13:15;;;;;;;20.23;11.87;;;;;;;5.98;83.90;101275.53;5136603;27;20027;-39
2021/04/30 05:15:40;;;;;;;18.03;12.27;;;;;;;5.97;84.56;101281.13;5137392;27;20042;-39
2021/04/30 05:18:06;;;;;;;17.70;11.97;;;;;;;6.04;83.89;101282.81;5136301;27;20385;-39
2021/04/30 05:20:31;;;;;;;17.77;13.77;;;;;;;6.02;84.60;101278.69;5135976;27;20033;-39
2021/04/30 05:22:56;;;;;;;21.43;12.57;;;;;;;6.06;84.47;101279.97;5136262;27;20110;-39
2021/04/30 05:25:22;;;;;;;16.50;12.27;;;;;;;6.09;84.31;101290.31;5136467;27;20092;-39
2021/04/30 05:27:47;;;;;;;17.38;12.07;;;;;;;6.10;84.14;101281.22;5135971;27;20046;-39
2021/04/30 05:30:13;;;;;;;15.07;11.93;;;;;;;6.15;84.77;101290.41;5136307;27;20070;-39
2021/04/30 05:32:39;;;;;;;18.55;12.55;;;;;;;6.16;84.85;101301.97;5135922;27;20069;-39
2021/04/30 05:35:06;;;;;;;17.83;13.20;;;;;;;6.19;84.67;101299.72;5136456;27;20039;-39
2021/04/30 05:37:32;;;;;;;17.02;12.70;;;;;;;6.20;84.55;101295.22;5136624;27;20156;-39
2021/04/30 05:39:58;;;;;;;;;;;;;;;6.30;83.30;101292.19;5137100;27;20030;-39
2021/04/30 05:42:25;;;;;;;17.98;12.88;;;;;;;6.22;84.39;101301.19;5136281;27;19907;-39
2021/04/30 05:44:50;;;;;;;16.80;12.45;;;;;;;6.23;84.75;101305.53;5135765;27;20489;-39
2021/04/30 05:47:16;;;;;;;17.77;13.32;;;;;;;6.22;84.88;101301.19;5135566;27;20118;-39
2021/04/30 05:49:42;;;;;;;20.58;13.50;;;;;;;6.22;85.09;101301.19;5136166;27;20027;-39
2021/04/30 05:52:07;;;;;;;14.15;12.52;;;;;;;6.25;84.82;101306.19;5135845;27;20327;-39
2021/04/30 05:54:32;;;;;;;14.40;11.97;;;;;;;6.27;84.55;101308.69;5136063;27;20555;-39
2021/04/30 05:56:58;;;;;;;17.47;13.37;;;;;;;6.30;84.77;101317.19;5135764;27;20110;-39
2021/04/30 05:59:23;;;;;;;18.10;12.97;;;;;;;6.26;85.22;101310.53;5136022;27;20114;-39
2021/04/30 06:01:48;;;;;;;16.87;12.93;;;;;;;6.30;84.75;101319.06;5135432;27;20106;-39
2021/04/30 06:04:14;;;;;;;17.97;14.27;;;;;;;6.36;85.41;101318.28;5135357;27;20030;-39
2021/04/30 06:06:39;;;;;;;19.17;13.00;;;;;;;6.35;85.13;101312.09;5136239;27;20055;-39
2021/04/30 06:09:05;;;;;;;16.40;12.97;;;;;;;6.39;85.73;101316.06;5136187;27;20060;-39
2021/04/30 06:11:30;;;;;;;17.40;12.27;;;;;;;6.43;85.51;101311.09;5136275;27;20075;-39
2021/04/30 06:13:56;;;;;;;17.40;12.57;;;;;;;6.47;85.19;101308.88;5135939;27;20119;-39
2021/04/30 06:16:21;;;;;;;16.03;12.00;;;;;;;6.51;85.04;101310.16;5135401;27;20159;-39
2021/04/30 06:18:46;;;;;;;16.07;12.43;;;;;;;6.51;84.83;101302.09;5133968;27;20032;-40
2021/04/30 06:21:12;;;;;;;18.37;12.73;;;;;;;6.56;84.63;101311.25;5136138;27;20038;-39
2021/04/30 06:23:37;;;;;;;16.37;12.57;;;;;;;6.59;85.16;101318.94;5134988;27;20061;-39
2021/04/30 06:26:03;;;;;;;19.40;13.13;;;;;;;6.66;84.84;101322.50;5135149;27;20050;-39
2021/04/30 06:28:28;;;;;;;19.10;13.10;;;;;;;6.68;84.94;101327.66;5135207;27;20062;-39
2021/04/30 06:30:56;;;;;;;18.33;12.33;;;;;;;6.67;84.83;101321.47;5134945;27;20027;-39
2021/04/30 06:33:21;;;;;;;15.80;12.70;;;;;;;6.69;85.68;101314.06;5135063;27;20473;-39
2021/04/30 06:35:46;;;;;;;14.37;11.87;;;;;;;6.72;84.62;101305.56;5135435;27;20080;-39
2021/04/30 06:38:12;;;;;;;21.63;12.73;;;;;;;6.77;84.93;101313.06;5135232;27;20363;-39
2021/04/30 06:40:37;;;;;;;19.07;12.43;;;;;;;6.75;84.94;101320.50;5135177;27;20023;-39
2021/04/30 06:43:03;;;;;;;16.60;12.30;;;;;;;6.76;84.86;101315.97;5135270;27;20034;-39
2021/04/30 06:45:29;;;;;;;19.35;11.40;;;;;;;6.83;84.29;101324.88;5135176;27;20034;-39
2021/04/30 06:47:54;;;;;;;19.87;12.37;;;;;;;6.81;84.62;101327.78;5135361;27;20027;-39
2021/04/30 06:50:20;;;;;;;15.20;11.80;;;;;;;6.85;84.54;101326.38;5135157;27;20077;-39
2021/04/30 06:52:45;;;;;;;18.35;12.88;;;;;;;6.88;85.06;101328.69;5134792;27;20027;-39
2021/04/30 06:55:11;;;;;;;19.47;12.47;;;;;;;6.91;84.99;101325.59;5135236;27;20038;-39
2021/04/30 06:57:37;;;;;;;22.88;14.60;;;;;;;6.93;85.25;101328.94;5134958;27;20117;-39
2021/04/30 07:00:04;;;;;;;;;;;;;;;7.05;83.54;101339.13;5135706;27;20084;-39
2021/04/30 07:02:29;;;;;;;14.93;11.00;;;;;;;7.00;84.37;101331.66;5134594;27;19956;-39
2021/04/30 07:04:57;;;;;;;17.30;11.67;;;;;;;7.01;84.30;101335.19;5134883;27;20118;-39
2021/04/30 07:07:22;;;;;;;18.38;12.65;;;;;;;6.95;85.08;101334.09;5134306;27;20093;-38
2021/04/30 07:09:48;;;;;;;17.43;11.37;;;;;;;6.99;84.34;101335.38;5135154;27;20035;-38
2021/04/30 07:12:14;;;;;;;16.80;11.50;;;;;;;6.94;84.79;101327.91;5134460;27;20038;-39
2021/04/30 07:14:39;;;;;;;16.70;11.65;;;;;;;7.02;84.57;101334.13;5134584;27;20035;-39
2021/04/30 07:17:04;;;;;;;26.03;12.27;;;;;;;7.00;84.42;101344.28;5134415;27;20028;-38
2021/04/30 07:19:30;;;;;;;18.47;12.70;;;;;;;6.97;84.87;101345.47;5134395;27;20035;-39
2021/04/30 07:21:55;;;;;;;18.43;11.73;;;;;;;7.02;84.40;101350.28;5134038;27;20045;-39
2021/04/30 07:24:20;;;;;;;16.67;11.53;;;;;;;7.00;84.15;101349.66;5134628;27;20476;-39
2021/04/30 07:26:46;;;;;;;17.03;11.23;;;;;;;6.99;84.80;101350.69;5134245;27;20034;-39
2021/04/30 07:29:11;;;;;;;15.53;11.13;;;;;;;7.00;84.51;101350.47;5134842;27;20431;-40
2021/04/30 07:31:37;;;;;;;15.25;12.15;;;;;;;7.01;84.81;101354.00;5134541;27;20031;-39
2021/04/30 07:34:03;;;;;;;14.50;10.85;;;;;;;7.02;84.05;101352.97;5133998;27;20035;-39
2021/04/30 07:36:28;;;;;;;20.17;11.52;;;;;;;7.04;84.57;101345.56;5134739;27;20084;-40
2021/04/30 07:38:54;;;;;;;15.60;11.13;;;;;;;7.04;84.72;101353.63;5134155;27;20019;-39
2021/04/30 07:41:19;;;;;;;19.17;11.33;;;;;;;7.07;85.03;101351.34;5135129;27;20470;-39
2021/04/30 07:43:45;;;;;;;18.52;12.23;;;;;;;7.09;84.84;101353.84;5138130;27;20261;-39
2021/04/30 07:46:10;;;;;;;22.47;11.80;;;;;;;7.14;84.67;101354.09;5138318;27;20117;-39
2021/04/30 07:48:35;;;;;;;15.50;11.47;;;;;;;7.16;84.67;101346.66;5138242;27;20027;-38
2021/04/30 07:51:02;;;;;;;14.47;11.03;;;;;;;7.25;84.02;101345.47;5139056;27;20075;-39
2021/04/30 07:53:28;;;;;;;19.55;11.90;;;;;;;7.32;84.04;101345.50;5138864;27;20084;-39
2021/04/30 07:55:54;;;;;;;17.33;11.32;;;;;;;7.33;84.14;101345.34;5137883;27;20024;-39
2021/04/30 07:58:20;;;;;;;14.37;11.30;;;;;;;7.36;83.88;101347.63;5137944;27;20027;-39
2021/04/30 08:00:46;;;;;;;16.80;11.80;;;;;;;7.41;83.43;101339.78;5138076;27;20031;-39
2021/04/30 08:03:11;;;;;;;20.93;12.63;;;;;;;7.53;84.38;101342.75;5137690;27;20084;-40
2021/04/30 08:05:37;;;;;;;18.70;12.83;;;;;;;7.63;84.30;101337.84;5138300;27;20646;-39
2021/04/30 08:08:04;;;;;;;16.03;11.40;;;;;;;7.75;83.87;101341.63;5138200;27;20479;-40
2021/04/30 08:10:31;;;;;;;17.15;12.65;;;;;;;7.83;83.97;101343.31;5138624;27;20064;-39
2021/04/30 08:12:57;;;;;;;15.85;11.85;;;;;;;7.86;84.03;101344.78;5137713;27;20037;-39
2021/04/30 08:15:22;;;;;;;14.33;11.43;;;;;;;8.03;83.27;101340.69;5138655;27;20027;-39
2021/04/30 08:17:47;;;;;;;15.93;12.13;;;;;;;8.10;82.45;101335.31;5137903;27;20027;-39
2021/04/30 08:20:13;;;;;;;18.67;12.60;;;;;;;8.21;82.73;101334.75;5137979;27;20362;-39
2021/04/30 08:22:39;;;;;;;20.33;12.10;;;;;;;8.36;83.06;101332.75;5137659;27;20421;-40
2021/04/30 08:25:06;;;;;;;16.08;10.73;;;;;;;8.48;82.58;101341.03;5138100;27;20023;-40
2021/04/30 08:27:32;;;;;;;18.35;11.60;;;;;;;8.58;82.67;101341.47;5137708;27;20031;-39
2021/04/30 08:29:57;;;;;;;17.05;11.27;;;;;;;8.75;82.43;101341.91;5137753;27;20072;-39
2021/04/30 08:32:22;;;;;;;19.87;10.63;;;;;;;8.84;81.35;101345.25;5137459;27;20096;-39
2021/04/30 08:34:48;;;;;;;17.93;11.17;;;;;;;8.96;80.97;101352.50;5137712;27;20030;-39
2021/04/30 08:37:13;;;;;;;17.17;10.67;;;;;;;8.99;80.09;101343.16;5137774;27;20413;-39
2021/04/30 08:39:40;;;;;;;14.50;10.40;;;;;;;8.98;80.16;101347.75;5137403;27;20432;-39
2021/04/30 08:42:05;;;;;;;15.55;11.38;;;;;;;8.94;80.61;101351.06;5136891;27;20284;-39
2021/04/30 08:44:31;;;;;;;13.27;11.05;;;;;;;8.98;81.38;101352.31;5137186;27;20034;-39
2021/04/30 08:46:56;;;;;;;15.10;10.43;;;;;;;8.94;80.59;101354.56;5137495;27;20027;-39
2021/04/30 08:49:21;;;;;;;17.63;10.43;;;;;;;8.81;79.54;101357.25;5136919;27;20535;-39
2021/04/30 08:51:47;;;;;;;13.17;10.87;;;;;;;8.81;79.99;101365.34;5137042;27;20513;-39
2021/04/30 08:54:15;;;;;;;15.43;10.30;;;;;;;8.79;81.36;101364.75;5135986;27;20100;-40
2021/04/30 08:56:48;;;;;;;14.02;10.63;;;;;;;8.85;81.07;101363.09;5136731;27;20223;-39
2021/04/30 08:59:14;;;;;;;15.90;10.73;;;;;;;8.94;81.62;101362.66;5136533;27;20030;-39
2021/04/30 09:01:39;;;;;;;13.93;10.97;;;;;;;9.08;79.51;101357.25;5137425;27;20031;-39
2021/04/30 09:04:06;;;;;;;15.57;11.30;;;;;;;9.09;79.36;101364.34;5136521;27;20272;-38
2021/04/30 09:06:40;;;;;;;14.15;10.68;;;;;;;9.13;79.28;101373.66;5136871;27;20074;-39
2021/04/30 09:09:11;;;;;;;13.02;10.57;;;;;;;9.10;80.23;101371.38;5135602;27;20502;-39
2021/04/30 09:11:42;;;;;;;15.65;11.02;;;;;;;9.09;78.13;101372.41;5136956;27;20109;-39
2021/04/30 09:14:32;;;;;;;14.85;11.32;;;;;;;9.16;78.93;101381.31;5136423;27;20027;-38
2021/04/30 09:17:17;;;;;;;16.13;12.32;;;;;;;9.12;78.79;101380.91;5137142;27;20055;-39
2021/04/30 09:19:51;;;;;;;19.40;13.15;;;;;;;9.14;78.46;101383.41;5136591;27;20136;-39
2021/04/30 09:22:28;;;;;;;17.45;11.23;;;;;;;9.16;78.49;101384.03;5136769;27;20451;-39
2021/04/30 09:24:56;;;;;;;15.23;10.85;;;;;;;9.17;77.03;101378.41;5136418;27;20044;-38
2021/04/30 09:27:35;;;;;;;14.30;11.48;;;;;;;9.24;78.05;101384.66;5136462;27;20155;-38
2021/04/30 09:30:13;;;;;;;12.13;10.90;;;;;;;9.35;77.70;101382.34;5136616;27;20027;-39
2021/04/30 09:33:12;;;;;;;17.35;12.27;;;;;;;9.48;79.15;101375.06;5136010;27;20383;-39
2021/04/30 09:35:40;;;;;;;15.63;11.88;;;;;;;9.42;77.85;101370.53;5136505;27;20360;-39
2021/04/30 09:38:25;;;;;;;20.13;12.93;;;;;;;9.57;78.83;101381.09;5136130;27;20060;-39
2021/04/30 09:41:04;;;;;;;17.15;11.80;;;;;;;9.48;77.75;101368.84;5136707;27;20034;-39
2021/04/30 09:43:44;;;;;;;19.98;12.27;;;;;;;9.52;76.96;101379.00;5136687;27;20053;-39
2021/04/30 09:46:29;;;;;;;15.80;10.77;;;;;;;9.58;76.95;101385.44;5136758;27;20035;-38
2021/04/30 09:49:07;;;;;;;16.33;10.35;;;;;;;9.69;75.32;101376.66;5135969;27;20117;-39
2021/04/30 09:51:41;;;;;;;18.92;10.80;;;;;;;9.78;75.30;101386.22;5135716;27;20033;-39
2021/04/30 09:54:21;;;;;;;17.08;11.20;;;;;;;9.88;76.07;101383.06;5135340;27;20031;-39
2021/04/30 09:56:48;;;;;;;14.88;11.30;;;;;;;9.99;75.95;101386.97;5135948;27;20035;-39
2021/04/30 09:59:24;;;;;;;15.52;11.23;;;;;;;10.05;75.03;101378.00;5135647;27;20034;-39
2021/04/30 10:02:04;;;;;;;16.60;11.13;;;;;;;10.06;76.63;101371.56;5135680;27;20035;-39
2021/04/30 10:04:34;;;;;;;17.35;11.93;;;;;;;9.95;75.35;101370.34;5135249;27;20034;-38
2021/04/30 10:07:00;;;;;;;16.83;12.30;;;;;;;9.92;74.19;101373.50;5135447;27;20371;-39
2021/04/30 10:09:27;;;;;;;18.45;11.73;;;;;;;9.91;73.98;101374.53;5135232;27;20538;-39
2021/04/30 10:11:53;;;;;;;19.90;13.13;;;;;;;9.96;74.80;101376.59;5134517;27;20027;-39
2021/04/30 10:14:19;;;;;;;16.73;13.80;;;;;;;9.96;73.80;101376.59;5135411;27;20019;-39
2021/04/30 10:16:44;;;;;;;17.27;14.90;;;;;;;9.95;74.57;101364.13;5135659;27;20084;-38
2021/04/30 10:19:09;;;;;;;18.73;14.00;;;;;;;9.93;72.86;101366.22;5135063;27;20482;-39
2021/04/30 10:21:41;;;;;;;16.60;13.80;;;;;;;9.91;73.53;101369.13;5135365;27;20027;-39
2021/04/30 10:24:13;;;;;;;20.25;13.45;;;;;;;9.89;74.23;101371.19;5134982;27;20071;-39
2021/04/30 10:26:39;;;;;;;17.17;14.20;;;;;;;9.82;73.98;101361.47;5135509;27;20027;-39
2021/04/30 10:29:08;;;;;;;17.83;12.80;;;;;;;9.79;73.71;101370.81;5135669;27;20051;-39
2021/04/30 10:31:37;;;;;;;17.73;13.32;;;;;;;9.74;74.10;101370.63;5135148;27;20106;-39
2021/04/30 10:34:10;;;;;;;20.23;14.50;;;;;;;9.71;74.53;101368.34;5135045;27;20033;-39
2021/04/30 10:36:47;;;;;;;15.82;14.10;;;;;;;9.67;73.60;101367.97;5135000;27;20421;-38
2021/04/30 10:39:33;;;;;;;18.95;14.07;;;;;;;9.66;74.64;101365.44;5135182;27;20480;-39
2021/04/30 10:42:08;;;;;;;18.15;14.00;;;;;;;9.67;73.77;101361.75;5135442;27;20023;-39
2021/04/30 10:44:39;;;;;;;18.65;14.85;;;;;;;9.64;75.14;101362.97;5134986;27;20426;-39
2021/04/30 10:47:04;;;;;;;16.85;13.90;;;;;;;9.70;75.20;101369.41;5135436;27;20019;-38
2021/04/30 10:49:30;;;;;;;21.30;15.30;;;;;;;9.65;75.20;101366.50;5135604;27;20046;-39
2021/04/30 10:52:04;;;;;;;20.60;15.53;;;;;;;9.69;74.18;101362.34;5134505;27;20056;-38
2021/04/30 10:54:32;;;;;;;22.90;15.95;;;;;;;9.62;73.94;101366.94;5134914;27;20076;-39
2021/04/30 10:56:58;;;;;;;21.10;15.48;;;;;;;9.52;73.89;101359.28;5135047;27;20409;-38
2021/04/30 10:59:28;;;;;;;;;;;;;;;9.61;73.94;101362.56;5135036;27;20066;-39
2021/04/30 11:02:02;;;;;;;17.73;15.60;;;;;;;9.50;74.73;101372.97;5135453;27;19918;-39
2021/04/30 11:04:28;;;;;;;22.13;15.88;;;;;;;9.47;75.46;101365.31;5135353;27;20031;-39
2021/04/30 11:06:54;;;;;;;20.17;15.90;;;;;;;9.52;74.94;101365.50;5134241;27;20436;-39
2021/04/30 11:09:33;;;;;;;;;;;;;;;9.62;74.85;101367.78;5134658;27;20038;-38
2021/04/30 11:12:18;;;;;;;18.52;14.13;;;;;;;9.57;74.42;101366.75;5135331;27;20318;-40
2021/04/30 11:15:08;;;;;;;20.35;15.18;;;;;;;9.58;73.83;101366.53;5135022;27;20043;-40
2021/04/30 11:17:55;;;;;;;19.75;15.18;;;;;;;9.55;73.72;101361.53;5133685;27;20114;-40
2021/04/30 11:20:24;;;;;;;22.00;16.17;;;;;;;9.55;72.38;101361.53;5135007;27;20034;-39
2021/04/30 11:23:21;;;;;;;27.23;16.55;;;;;;;9.54;73.02;101360.72;5134685;27;20027;-40